Time;durP1;ratioP1;P1;durP2;ratioP2;P2;SDS_P1;SDS_P2;PMS_P1;PMS_P2;Temp;Humidity;BMP_temperature;BMP_pressure;BME280_temperature;BME280_humidity;BME280_pressure;Samples;Min_cycle;Max_cycle;Signal;HPM_P1;HPM_P2
2021/10/04 00:00:21;;;;;;;8.35;5.03;;;16.70;99.90;16.80;100347.00;;;;4955655;28;116503;-68
2021/10/04 00:02:47;;;;;;;9.48;6.30;;;16.70;99.90;16.80;100346.00;;;;4962307;28;117216;-68
2021/10/04 00:05:13;;;;;;;5.13;4.43;;;16.70;99.90;16.80;100357.00;;;;4966004;28;109411;-68
2021/10/04 00:07:39;;;;;;;10.57;6.38;;;16.70;99.90;16.80;100353.00;;;;4960359;28;108616;-68
2021/10/04 00:10:17;;;;;;;7.93;5.25;;;16.70;99.90;16.80;100371.00;;;;4972560;28;87866;-68
2021/10/04 00:12:43;;;;;;;6.72;5.05;;;16.70;99.90;16.80;100366.00;;;;4956725;28;95455;-67
2021/10/04 00:15:13;;;;;;;8.48;5.75;;;16.70;99.90;16.80;100359.00;;;;4956941;28;87791;-68
2021/10/04 00:17:40;;;;;;;8.50;5.97;;;16.70;99.90;16.90;100360.00;;;;4956941;28;92596;-68
2021/10/04 00:20:09;;;;;;;11.45;6.90;;;16.70;99.90;16.90;100367.00;;;;4956328;28;90126;-68
2021/10/04 00:22:35;;;;;;;10.63;5.68;;;16.70;99.90;16.90;100370.00;;;;4955120;28;89001;-68
2021/10/04 00:25:03;;;;;;;6.95;4.40;;;16.70;99.90;16.90;100379.00;;;;4956421;28;87712;-68
2021/10/04 00:27:29;;;;;;;6.85;4.93;;;16.70;99.90;16.90;100366.00;;;;4957874;28;91843;-67
2021/10/04 00:29:54;;;;;;;7.82;4.72;;;16.90;99.90;16.90;100362.00;;;;4974797;28;116651;-68
2021/10/04 00:32:20;;;;;;;7.35;5.50;;;16.70;99.90;16.90;100373.00;;;;4957239;28;110597;-69
2021/10/04 00:34:46;;;;;;;10.20;5.38;;;16.80;99.90;16.90;100367.00;;;;4955648;28;103610;-68
2021/10/04 00:37:11;;;;;;;6.97;5.60;;;16.70;99.90;16.90;100369.00;;;;4957589;28;107683;-68
2021/10/04 00:39:37;;;;;;;7.55;5.75;;;16.80;99.90;16.90;100365.00;;;;4956664;28;116936;-68
2021/10/04 00:42:03;;;;;;;9.45;6.20;;;16.80;99.90;16.90;100367.00;;;;4955438;28;106316;-68
2021/10/04 00:44:29;;;;;;;9.68;5.38;;;16.80;99.90;16.90;100369.00;;;;4973510;28;92828;-69
2021/10/04 00:46:55;;;;;;;8.68;5.80;;;16.80;99.90;16.90;100370.00;;;;4975035;28;109456;-69
2021/10/04 00:49:21;;;;;;;8.40;5.30;;;16.80;99.90;16.90;100368.00;;;;4975630;28;89644;-67
2021/10/04 00:51:47;;;;;;;7.18;5.28;;;16.80;99.90;16.90;100373.00;;;;4975326;28;118324;-68
2021/10/04 00:54:12;;;;;;;7.88;5.78;;;16.80;99.90;16.90;100368.00;;;;4974517;28;109244;-69
2021/10/04 00:56:38;;;;;;;7.78;6.45;;;16.70;99.90;16.80;100367.00;;;;4975703;28;92395;-68
2021/10/04 00:59:04;;;;;;;6.78;5.13;;;16.70;99.90;16.80;100364.00;;;;4956042;28;118114;-68
2021/10/04 01:01:30;;;;;;;10.50;6.07;;;16.70;99.90;16.80;100370.00;;;;4963639;28;116822;-68
2021/10/04 01:03:58;;;;;;;8.57;5.55;;;16.70;99.90;16.80;100372.00;;;;4937973;28;87885;-69
2021/10/04 01:06:25;;;;;;;11.80;6.13;;;16.70;99.90;16.80;100374.00;;;;4947107;28;88027;-68
2021/10/04 01:08:51;;;;;;;10.35;6.30;;;16.60;99.90;16.80;100375.00;;;;4974816;28;97327;-69
2021/10/04 01:11:17;;;;;;;8.30;5.30;;;16.60;99.90;16.80;100380.00;;;;4975418;28;88061;-67
2021/10/04 01:13:44;;;;;;;11.40;6.50;;;16.60;99.90;16.70;100388.00;;;;4963455;28;111351;-68
2021/10/04 01:16:10;;;;;;;9.68;6.63;;;16.60;99.90;16.70;100387.00;;;;4937297;28;94589;-67
2021/10/04 01:18:36;;;;;;;9.60;6.10;;;16.60;99.90;16.70;100392.00;;;;4935958;28;115444;-68
2021/10/04 01:21:03;;;;;;;12.23;5.95;;;16.60;99.90;16.70;100392.00;;;;4954499;28;118940;-67
2021/10/04 01:23:29;;;;;;;8.25;5.93;;;16.60;99.90;16.70;100390.00;;;;4974069;28;87721;-69
2021/10/04 01:25:57;;;;;;;7.55;5.30;;;16.60;99.90;16.70;100387.00;;;;4956710;28;87354;-67
2021/10/04 01:28:23;;;;;;;8.50;5.95;;;16.60;99.90;16.70;100388.00;;;;4975481;28;87939;-67
2021/10/04 01:30:48;;;;;;;8.43;6.25;;;16.60;99.90;16.70;100401.00;;;;4972760;28;89305;-68
2021/10/04 01:33:15;;;;;;;14.88;5.55;;;16.60;99.90;16.70;100402.00;;;;4965378;28;88746;-68
2021/10/04 01:35:40;;;;;;;9.93;4.65;;;16.60;99.90;16.70;100409.00;;;;4976506;28;107675;-68
2021/10/04 01:38:06;;;;;;;9.40;5.63;;;16.60;99.90;16.60;100406.00;;;;4977119;28;117618;-68
2021/10/04 01:40:33;;;;;;;7.50;5.22;;;16.60;99.90;16.60;100406.00;;;;4968585;28;103346;-68
2021/10/04 01:42:59;;;;;;;8.38;6.18;;;16.50;99.90;16.60;100402.00;;;;4940929;28;87880;-69
2021/10/04 01:45:27;;;;;;;7.10;4.72;;;16.50;99.90;16.60;100414.00;;;;4939778;28;108760;-68
2021/10/04 01:47:59;;;;;;;7.72;5.78;;;16.50;99.90;16.60;100422.00;;;;4958905;28;87769;-68
2021/10/04 01:50:28;;;;;;;11.15;5.43;;;16.50;99.90;16.50;100426.00;;;;4959637;28;87260;-68
2021/10/04 01:52:54;;;;;;;9.80;5.38;;;16.40;99.90;16.50;100423.00;;;;4942230;28;88092;-68
2021/10/04 01:55:20;;;;;;;10.13;6.45;;;16.40;99.90;16.50;100418.00;;;;4958788;28;87966;-68
2021/10/04 01:57:45;;;;;;;7.57;5.47;;;16.40;99.90;16.40;100421.00;;;;4957067;28;119059;-67
2021/10/04 02:00:16;;;;;;;8.05;5.68;;;16.40;99.90;16.40;100417.00;;;;4940072;28;88240;-69
2021/10/04 02:02:45;;;;;;;7.50;5.75;;;16.30;99.90;16.40;100421.00;;;;4970211;28;97616;-69
2021/10/04 02:05:11;;;;;;;11.82;6.53;;;16.30;99.90;16.40;100420.00;;;;4979174;28;87825;-69
2021/10/04 02:07:37;;;;;;;6.65;5.57;;;16.30;99.90;16.30;100418.00;;;;4976051;28;101511;-68
2021/10/04 02:10:14;;;;;;;7.95;5.40;;;16.30;99.90;16.30;100427.00;;;;4976733;28;117505;-68
2021/10/04 02:12:41;;;;;;;9.25;6.00;;;16.20;99.90;16.30;100422.00;;;;4978213;28;90296;-69
2021/10/04 02:15:07;;;;;;;10.32;5.80;;;16.20;99.90;16.20;100417.00;;;;4960172;28;87352;-68
2021/10/04 02:17:34;;;;;;;8.00;6.30;;;16.20;99.90;16.20;100423.00;;;;4978330;28;88207;-69
2021/10/04 02:20:09;;;;;;;6.82;5.32;;;16.10;99.90;16.20;100426.00;;;;4959401;28;87900;-68
2021/10/04 02:22:34;;;;;;;6.88;5.00;;;16.10;99.90;16.20;100434.00;;;;4977395;28;88823;-69
2021/10/04 02:25:00;;;;;;;7.53;4.95;;;16.10;99.90;16.10;100441.00;;;;4977379;28;107095;-69
2021/10/04 02:27:26;;;;;;;9.38;6.57;;;16.00;99.90;16.10;100431.00;;;;4958327;28;87881;-68
2021/10/04 02:29:52;;;;;;;7.82;6.10;;;16.00;99.90;16.10;100428.00;;;;4968037;28;117355;-68
2021/10/04 02:32:17;;;;;;;10.52;6.28;;;16.00;99.90;16.00;100448.00;;;;4977809;28;87713;-68
2021/10/04 02:34:43;;;;;;;7.93;5.72;;;16.20;99.90;16.00;100461.00;;;;4977319;28;108693;-68
2021/10/04 02:37:09;;;;;;;7.40;4.90;;;15.90;99.90;16.00;100455.00;;;;4976741;28;116733;-69
2021/10/04 02:39:35;;;;;;;10.40;6.38;;;15.90;99.90;16.00;100463.00;;;;4974827;28;116718;-68
2021/10/04 02:42:00;;;;;;;8.60;5.63;;;15.90;99.90;16.00;100451.00;;;;4978198;28;88037;-68
2021/10/04 02:44:26;;;;;;;10.85;5.43;;;15.90;99.90;16.00;100453.00;;;;4974841;28;87722;-68
2021/10/04 02:46:52;;;;;;;8.70;5.95;;;15.90;99.90;15.90;100450.00;;;;4976421;28;118688;-68
2021/10/04 02:49:18;;;;;;;8.20;5.75;;;15.90;99.90;15.90;100456.00;;;;4977790;28;92747;-68
2021/10/04 02:51:44;;;;;;;17.30;6.53;;;15.80;99.90;15.90;100461.00;;;;4977411;28;104476;-68
2021/10/04 02:54:09;;;;;;;9.45;5.63;;;15.80;99.90;15.90;100459.00;;;;4976119;28;108005;-69
2021/10/04 02:56:35;;;;;;;6.45;5.40;;;15.80;99.90;15.90;100454.00;;;;4974124;28;117710;-68
2021/10/04 02:59:01;;;;;;;7.00;5.05;;;15.80;99.90;15.90;100461.00;;;;4957958;28;88640;-67
2021/10/04 03:01:26;;;;;;;10.25;5.65;;;15.80;99.90;15.90;100460.00;;;;4956398;28;109326;-65
2021/10/04 03:03:52;;;;;;;6.85;5.18;;;15.80;99.90;15.80;100467.00;;;;4957938;28;87277;-65
2021/10/04 03:06:18;;;;;;;8.45;5.63;;;15.70;99.90;15.80;100466.00;;;;4956905;28;116502;-65
2021/10/04 03:08:43;;;;;;;10.77;5.88;;;15.80;99.90;15.80;100453.00;;;;4957925;28;116963;-65
2021/10/04 03:11:09;;;;;;;11.40;5.20;;;15.70;99.90;15.80;100463.00;;;;4956374;28;110722;-65
2021/10/04 03:13:35;;;;;;;10.07;6.40;;;15.70;99.90;15.80;100459.00;;;;4956771;28;108971;-66
2021/10/04 03:16:01;;;;;;;7.90;5.65;;;15.70;99.90;15.80;100471.00;;;;4957946;28;87864;-65
2021/10/04 03:18:27;;;;;;;11.40;5.93;;;15.70;99.90;15.80;100465.00;;;;4957202;28;97345;-65
2021/10/04 03:20:52;;;;;;;10.38;7.50;;;15.70;99.90;15.80;100471.00;;;;4956866;28;111537;-65
2021/10/04 03:23:18;;;;;;;9.30;6.45;;;15.70;99.90;15.80;100466.00;;;;4959257;28;87808;-65
2021/10/04 03:25:44;;;;;;;8.45;6.07;;;15.70;99.90;15.80;100472.00;;;;4970788;28;87942;-65
2021/10/04 03:28:11;;;;;;;8.10;4.53;;;15.70;99.90;15.80;100481.00;;;;4977515;28;101765;-66
2021/10/04 03:30:36;;;;;;;8.75;4.22;;;15.70;99.90;15.80;100485.00;;;;4977182;28;87667;-65
2021/10/04 03:33:04;;;;;;;8.18;5.18;;;15.70;99.90;15.80;100491.00;;;;4976414;28;109534;-66
2021/10/04 03:35:30;;;;;;;9.70;5.97;;;15.70;99.90;15.80;100505.00;;;;4977108;28;89000;-65
2021/10/04 03:37:55;;;;;;;8.45;5.53;;;15.70;99.90;15.80;100497.00;;;;4990720;28;107710;-65
2021/10/04 03:40:22;;;;;;;6.87;5.23;;;15.70;99.90;15.80;100498.00;;;;4979193;28;109837;-65
2021/10/04 03:42:48;;;;;;;8.55;5.47;;;15.70;99.90;15.90;100501.00;;;;4976795;28;87780;-65
2021/10/04 03:45:15;;;;;;;7.70;5.68;;;15.70;99.90;15.90;100504.00;;;;4974647;28;88305;-65
2021/10/04 03:47:43;;;;;;;8.52;5.47;;;15.80;99.90;15.90;100499.00;;;;4977054;28;88748;-66
2021/10/04 03:50:13;;;;;;;6.80;4.00;;;15.80;99.90;15.90;100515.00;;;;4977005;28;88175;-65
2021/10/04 03:52:39;;;;;;;7.93;5.57;;;15.80;99.90;15.90;100504.00;;;;4970382;28;86985;-65
2021/10/04 03:55:08;;;;;;;6.30;4.95;;;15.80;99.90;15.90;100512.00;;;;4956706;28;88870;-65
2021/10/04 03:57:34;;;;;;;7.68;5.15;;;15.80;99.90;15.90;100520.00;;;;4957370;28;88869;-65
2021/10/04 04:00:00;;;;;;;8.73;5.60;;;15.80;99.90;15.90;100526.00;;;;4956580;28;88885;-65
2021/10/04 04:02:25;;;;;;;8.23;5.85;;;15.80;99.90;15.90;100524.00;;;;4956783;28;108859;-66
2021/10/04 04:04:51;;;;;;;9.07;5.13;;;15.80;99.90;15.90;100524.00;;;;4956913;28;88639;-64
2021/10/04 04:07:17;;;;;;;7.95;5.47;;;15.80;99.90;15.90;100531.00;;;;4955887;28;117343;-65
2021/10/04 04:09:42;;;;;;;9.00;5.55;;;15.80;99.90;15.90;100546.00;;;;4956139;28;110160;-65
2021/10/04 04:12:08;;;;;;;8.10;5.55;;;15.80;99.90;15.90;100543.00;;;;4956144;28;108121;-65
2021/10/04 04:14:34;;;;;;;7.40;5.15;;;15.80;99.90;15.90;100540.00;;;;4956309;28;89153;-65
2021/10/04 04:16:59;;;;;;;7.50;4.90;;;15.80;99.90;15.90;100544.00;;;;4956150;28;114201;-65
2021/10/04 04:19:25;;;;;;;9.82;5.18;;;15.80;99.90;15.80;100545.00;;;;4955851;28;108732;-65
2021/10/04 04:21:51;;;;;;;7.60;5.13;;;15.80;99.90;15.80;100547.00;;;;4974955;28;108681;-65
2021/10/04 04:24:17;;;;;;;6.65;5.00;;;15.60;99.90;15.80;100549.00;;;;4975147;28;119114;-65
2021/10/04 04:26:46;;;;;;;6.38;4.72;;;15.70;99.90;15.80;100550.00;;;;4976180;28;89293;-66
2021/10/04 04:29:12;;;;;;;7.33;5.37;;;15.70;99.90;15.80;100555.00;;;;4975565;28;110378;-66
2021/10/04 04:31:38;;;;;;;7.05;4.72;;;15.70;99.90;15.80;100560.00;;;;4975845;28;108484;-65
2021/10/04 04:34:04;;;;;;;7.63;4.90;;;15.70;99.90;15.80;100565.00;;;;4973736;28;103692;-66
2021/10/04 04:36:30;;;;;;;7.55;5.32;;;15.70;99.90;15.80;100563.00;;;;4977089;28;88029;-65
2021/10/04 04:38:56;;;;;;;7.43;4.55;;;15.70;99.90;15.80;100558.00;;;;4975755;28;87550;-65
2021/10/04 04:41:21;;;;;;;6.18;5.05;;;15.70;99.90;15.80;100565.00;;;;4976646;28;108551;-65
2021/10/04 04:43:47;;;;;;;6.85;4.35;;;15.70;99.90;15.80;100563.00;;;;4956715;28;101185;-65
2021/10/04 04:46:13;;;;;;;6.10;4.47;;;15.90;99.90;15.80;100570.00;;;;4976148;28;94142;-65
2021/10/04 04:48:39;;;;;;;8.65;4.85;;;15.70;99.90;15.80;100562.00;;;;4962056;28;111435;-65
2021/10/04 04:51:04;;;;;;;8.85;4.55;;;15.70;99.90;15.80;100563.00;;;;4967517;28;94271;-65
2021/10/04 04:53:30;;;;;;;9.10;4.93;;;15.70;99.90;15.80;100572.00;;;;4963451;28;88686;-65
2021/10/04 04:55:56;;;;;;;6.88;4.53;;;15.70;99.90;15.80;100582.00;;;;4951888;28;118583;-65
2021/10/04 04:58:21;;;;;;;9.80;4.40;;;15.70;99.90;15.80;100598.00;;;;4952238;28;111048;-64
2021/10/04 05:00:47;;;;;;;8.38;4.90;;;15.70;99.90;15.80;100608.00;;;;4954593;28;87644;-65
2021/10/04 05:03:14;;;;;;;4.80;4.15;;;15.70;99.90;15.80;100604.00;;;;4952520;28;103564;-65
2021/10/04 05:05:40;;;;;;;8.55;5.65;;;15.70;99.90;15.80;100605.00;;;;4953523;28;87268;-65
2021/10/04 05:08:06;;;;;;;5.78;4.53;;;15.70;99.90;15.80;100607.00;;;;4957938;28;87981;-65
2021/10/04 05:10:32;;;;;;;9.18;4.35;;;15.70;99.90;15.80;100609.00;;;;4958606;28;108442;-65
2021/10/04 05:12:58;;;;;;;5.68;4.28;;;15.70;99.90;15.80;100617.00;;;;4958301;28;91886;-65
2021/10/04 05:15:23;;;;;;;5.70;4.35;;;15.70;99.90;15.80;100624.00;;;;4978325;28;118813;-65
2021/10/04 05:17:49;;;;;;;8.02;4.75;;;15.70;99.90;15.80;100624.00;;;;4979209;28;87594;-65
2021/10/04 05:20:15;;;;;;;4.63;3.13;;;15.70;99.90;15.80;100627.00;;;;4977492;28;100466;-65
2021/10/04 05:22:41;;;;;;;5.75;4.22;;;15.70;99.90;15.80;100625.00;;;;4978314;28;118592;-65
2021/10/04 05:25:09;;;;;;;6.30;3.88;;;15.70;99.90;15.80;100632.00;;;;4978246;28;102775;-67
2021/10/04 05:27:35;;;;;;;6.45;3.78;;;15.70;99.90;15.80;100637.00;;;;4975618;28;87500;-66
2021/10/04 05:30:03;;;;;;;5.05;3.40;;;15.70;99.90;15.80;100633.00;;;;4979039;28;86816;-66
2021/10/04 05:32:29;;;;;;;5.07;3.55;;;15.70;99.90;15.80;100636.00;;;;4978571;28;88957;-66
2021/10/04 05:34:54;;;;;;;5.40;4.43;;;15.70;99.90;15.80;100627.00;;;;4977676;28;118237;-66
2021/10/04 05:37:20;;;;;;;6.93;4.22;;;15.70;99.90;15.80;100623.00;;;;4977605;28;109755;-66
2021/10/04 05:39:46;;;;;;;3.90;3.22;;;15.70;99.90;15.80;100616.00;;;;4960385;28;87837;-66
2021/10/04 05:42:11;;;;;;;5.80;4.20;;;15.90;99.90;15.80;100618.00;;;;4958687;28;118195;-66
2021/10/04 05:44:37;;;;;;;7.78;3.97;;;15.70;99.90;15.80;100634.00;;;;4976119;28;117407;-66
2021/10/04 05:47:03;;;;;;;4.15;3.10;;;15.70;99.90;15.80;100644.00;;;;4978098;28;110187;-67
2021/10/04 05:49:29;;;;;;;3.72;3.33;;;15.70;99.90;15.80;100650.00;;;;4975415;28;87711;-67
2021/10/04 05:51:54;;;;;;;5.82;3.65;;;15.70;99.90;15.80;100635.00;;;;4978794;28;89428;-67
2021/10/04 05:54:21;;;;;;;4.95;3.13;;;15.70;99.90;15.80;100641.00;;;;4977522;28;118038;-67
2021/10/04 05:56:48;;;;;;;4.07;2.80;;;15.70;99.90;15.80;100649.00;;;;4978840;28;87789;-67
2021/10/04 05:59:14;;;;;;;4.93;2.92;;;15.70;99.90;15.80;100640.00;;;;4974140;28;87680;-65
2021/10/04 06:01:40;;;;;;;3.10;2.20;;;15.70;99.90;15.80;100640.00;;;;4960569;28;101364;-65
2021/10/04 06:04:05;;;;;;;6.53;2.85;;;15.70;99.90;15.80;100635.00;;;;4958277;28;110397;-66
2021/10/04 06:06:31;;;;;;;2.53;1.88;;;15.70;99.90;15.90;100651.00;;;;4959706;28;110270;-66
2021/10/04 06:08:57;;;;;;;4.47;2.05;;;15.80;99.90;15.80;100649.00;;;;4959249;28;87435;-65
2021/10/04 06:11:23;;;;;;;3.03;1.75;;;15.70;99.90;15.80;100653.00;;;;4958823;28;117417;-66
2021/10/04 06:13:50;;;;;;;3.72;1.88;;;15.70;99.90;15.80;100654.00;;;;4958588;28;88162;-66
2021/10/04 06:16:15;;;;;;;2.90;2.42;;;15.70;99.90;15.90;100663.00;;;;4958800;28;87898;-65
2021/10/04 06:18:41;;;;;;;3.50;2.08;;;15.80;99.90;15.90;100667.00;;;;4959368;28;109060;-66
2021/10/04 06:21:07;;;;;;;2.70;1.83;;;15.80;99.90;15.90;100662.00;;;;4958766;28;117107;-65
2021/10/04 06:23:33;;;;;;;3.45;1.92;;;15.80;99.90;16.00;100667.00;;;;4969154;28;87750;-65
2021/10/04 06:25:58;;;;;;;1.77;1.58;;;15.90;99.90;16.00;100678.00;;;;4977455;28;89046;-65
2021/10/04 06:28:24;;;;;;;1.42;1.33;;;15.90;99.90;16.10;100672.00;;;;4970370;28;87702;-66
2021/10/04 06:30:50;;;;;;;4.07;1.83;;;16.00;99.90;16.20;100677.00;;;;4958466;28;117619;-66
2021/10/04 06:33:16;;;;;;;3.97;1.50;;;16.10;99.90;16.30;100677.00;;;;4960040;28;99598;-69
2021/10/04 06:35:41;;;;;;;1.90;1.67;;;16.40;99.90;16.40;100684.00;;;;4958343;28;87675;-68
2021/10/04 06:38:07;;;;;;;1.77;1.30;;;16.30;99.90;16.50;100689.00;;;;4964067;28;108947;-68
2021/10/04 06:40:33;;;;;;;1.70;1.38;;;16.30;99.90;16.60;100704.00;;;;4977109;28;117861;-68
2021/10/04 06:42:59;;;;;;;2.30;1.35;;;16.40;99.90;16.60;100695.00;;;;4975598;28;88001;-68
2021/10/04 06:45:24;;;;;;;1.60;1.00;;;16.50;99.90;16.70;100696.00;;;;4977455;28;110150;-68
2021/10/04 06:47:50;;;;;;;1.95;1.42;;;16.60;99.90;16.80;100690.00;;;;4976614;28;109445;-68
2021/10/04 06:50:16;;;;;;;1.30;1.05;;;16.70;99.90;16.80;100703.00;;;;4976460;28;119019;-68
2021/10/04 06:52:42;;;;;;;2.40;1.48;;;16.70;99.90;16.90;100718.00;;;;4975898;28;117557;-68
2021/10/04 06:55:10;;;;;;;0.70;0.60;;;16.70;99.90;17.00;100722.00;;;;4977394;28;87749;-67
2021/10/04 06:57:37;;;;;;;2.42;1.25;;;16.80;99.90;17.00;100731.00;;;;4977471;28;87765;-67
2021/10/04 07:00:11;;;;;;;1.20;1.00;;;16.90;99.90;17.00;100726.00;;;;4977202;28;88070;-67
2021/10/04 07:02:38;;;;;;;2.78;0.88;;;16.90;99.90;17.10;100718.00;;;;4957540;28;87836;-67
2021/10/04 07:05:05;;;;;;;1.75;1.08;;;16.90;99.90;17.10;100731.00;;;;4941548;28;87948;-67
2021/10/04 07:07:31;;;;;;;0.95;0.80;;;17.00;99.90;17.20;100730.00;;;;4960334;28;87033;-67
2021/10/04 07:09:56;;;;;;;1.85;1.10;;;17.00;99.90;17.30;100739.00;;;;4977527;28;87772;-67
2021/10/04 07:12:23;;;;;;;1.27;1.00;;;17.10;99.90;17.30;100726.00;;;;4967208;28;88176;-67
2021/10/04 07:14:52;;;;;;;1.00;0.88;;;17.20;99.90;17.30;100736.00;;;;4958217;28;88751;-68
2021/10/04 07:17:18;;;;;;;0.82;0.70;;;17.20;99.90;17.40;100735.00;;;;4949850;28;87620;-67
2021/10/04 07:19:44;;;;;;;0.70;0.70;;;17.30;99.90;17.40;100724.00;;;;4965638;28;92141;-67
2021/10/04 07:22:09;;;;;;;1.17;0.73;;;17.30;99.90;17.50;100729.00;;;;4958081;28;116145;-69
2021/10/04 07:24:35;;;;;;;0.98;0.90;;;17.30;99.90;17.50;100734.00;;;;4961358;28;87963;-68
2021/10/04 07:27:03;;;;;;;1.25;0.70;;;17.40;99.90;17.60;100732.00;;;;4956568;28;109348;-67
2021/10/04 07:29:29;;;;;;;1.00;0.90;;;17.40;99.90;17.60;100744.00;;;;4957235;28;88544;-69
2021/10/04 07:31:55;;;;;;;0.73;0.63;;;17.40;99.90;17.70;100751.00;;;;4957276;28;88512;-69
2021/10/04 07:34:21;;;;;;;2.00;0.82;;;17.50;99.90;17.80;100751.00;;;;4957104;28;93599;-67
2021/10/04 07:36:47;;;;;;;1.35;0.90;;;17.60;99.90;17.80;100751.00;;;;4958215;28;107676;-67
2021/10/04 07:39:12;;;;;;;0.73;0.47;;;17.60;99.90;17.90;100752.00;;;;4957724;28;89367;-68
2021/10/04 07:41:38;;;;;;;0.80;0.40;;;17.70;99.90;17.90;100756.00;;;;4957262;28;88608;-69
2021/10/04 07:44:05;;;;;;;0.73;0.50;;;17.70;99.90;18.00;100755.00;;;;4956460;28;108511;-68
2021/10/04 07:46:31;;;;;;;0.77;0.45;;;17.80;99.90;18.10;100758.00;;;;4963316;28;93757;-67
2021/10/04 07:48:57;;;;;;;1.13;0.75;;;17.90;99.90;18.20;100770.00;;;;4943762;28;102937;-68
2021/10/04 07:51:22;;;;;;;0.35;0.32;;;18.00;99.90;18.30;100776.00;;;;4957279;28;111409;-68
2021/10/04 07:53:50;;;;;;;0.57;0.32;;;18.10;99.90;18.40;100776.00;;;;4976076;28;94015;-69
2021/10/04 07:56:16;;;;;;;0.30;0.28;;;18.20;99.90;18.50;100781.00;;;;4975781;28;87287;-68
2021/10/04 07:58:41;;;;;;;1.02;0.60;;;18.30;99.90;18.60;100779.00;;;;4977086;28;88549;-69
2021/10/04 08:01:07;;;;;;;0.20;0.20;;;18.40;99.90;18.80;100783.00;;;;4975903;28;116505;-68
2021/10/04 08:03:32;;;;;;;0.60;0.40;;;18.50;99.90;18.90;100787.00;;;;4975412;28;103909;-68
2021/10/04 08:05:58;;;;;;;0.75;0.40;;;18.60;99.90;18.90;100790.00;;;;4975780;28;100267;-69
2021/10/04 08:08:24;;;;;;;0.28;0.28;;;18.70;99.40;19.00;100796.00;;;;4975237;28;87819;-68
2021/10/04 08:10:49;;;;;;;2.22;0.57;;;18.80;99.00;19.10;100807.00;;;;4975695;28;117529;-68
2021/10/04 08:13:15;;;;;;;0.45;0.30;;;18.80;98.60;19.10;100806.00;;;;4965054;28;110390;-68
2021/10/04 08:15:41;;;;;;;0.30;0.20;;;18.90;98.20;19.10;100817.00;;;;4957055;28;88749;-66
2021/10/04 08:18:08;;;;;;;0.38;0.35;;;18.90;97.90;19.10;100815.00;;;;4957660;28;89032;-68
2021/10/04 08:20:34;;;;;;;0.80;0.10;;;18.90;97.50;19.10;100799.00;;;;4921572;28;100139;-67
2021/10/04 08:23:00;;;;;;;0.20;0.20;;;18.90;97.70;19.10;100801.00;;;;4956652;28;87886;-67
2021/10/04 08:25:25;;;;;;;0.50;0.43;;;19.00;97.10;19.20;100815.00;;;;4956676;28;87663;-68
2021/10/04 08:27:51;;;;;;;0.55;0.40;;;18.90;96.80;19.20;100822.00;;;;4955782;28;115744;-68
2021/10/04 08:30:17;;;;;;;0.63;0.30;;;18.90;96.60;19.20;100817.00;;;;4956450;28;89564;-67
2021/10/04 08:32:45;;;;;;;0.30;0.10;;;19.00;96.40;19.20;100813.00;;;;4956663;28;87749;-68
2021/10/04 08:35:11;;;;;;;0.80;0.30;;;19.00;96.20;19.20;100823.00;;;;4938030;28;87707;-69
2021/10/04 08:37:37;;;;;;;1.08;0.47;;;19.00;96.10;19.20;100834.00;;;;4956388;28;89078;-68
2021/10/04 08:40:07;;;;;;;0.60;0.52;;;19.00;96.00;19.20;100822.00;;;;4955869;28;87951;-69
2021/10/04 08:42:33;;;;;;;0.65;0.40;;;19.00;95.90;19.10;100836.00;;;;4955832;28;87969;-67
2021/10/04 08:45:00;;;;;;;0.30;0.30;;;19.00;95.80;19.10;100836.00;;;;4964874;28;87940;-68
2021/10/04 08:47:27;;;;;;;0.45;0.40;;;19.00;95.90;19.20;100846.00;;;;4984759;28;88965;-67
2021/10/04 08:49:53;;;;;;;0.60;0.55;;;19.00;96.20;19.20;100854.00;;;;4989276;28;87880;-67
2021/10/04 08:52:20;;;;;;;0.68;0.40;;;19.00;96.20;19.20;100846.00;;;;4991005;28;88600;-67
2021/10/04 08:54:47;;;;;;;0.30;0.30;;;19.00;96.30;19.30;100837.00;;;;4992394;28;88068;-68
2021/10/04 08:57:13;;;;;;;0.13;0.13;;;19.00;96.30;19.40;100846.00;;;;4974111;28;87926;-67
2021/10/04 08:59:39;;;;;;;0.98;0.70;;;19.10;96.20;19.40;100837.00;;;;4972487;28;87936;-66
2021/10/04 09:02:21;;;;;;;1.40;0.57;;;19.20;96.20;19.50;100832.00;;;;4971348;28;110286;-69
2021/10/04 09:05:13;;;;;;;1.65;0.70;;;19.30;96.10;19.60;100838.00;;;;4975350;28;87537;-68
2021/10/04 09:07:50;;;;;;;0.40;0.40;;;19.40;95.90;19.80;100835.00;;;;4939152;28;89754;-67
2021/10/04 09:10:20;;;;;;;0.90;0.75;;;19.50;95.50;19.90;100825.00;;;;4975540;28;88388;-69
2021/10/04 09:12:51;;;;;;;2.83;0.77;;;19.60;95.10;20.00;100831.00;;;;4975004;28;90216;-69
2021/10/04 09:15:33;;;;;;;1.33;0.73;;;19.80;94.90;20.20;100823.00;;;;4957886;28;88362;-69
2021/10/04 09:18:14;;;;;;;0.75;0.70;;;19.90;94.50;20.30;100831.00;;;;4972759;28;89984;-68
2021/10/04 09:21:02;;;;;;;0.90;0.55;;;20.00;93.80;20.30;100817.00;;;;4975665;28;89417;-67
2021/10/04 09:23:44;;;;;;;1.30;0.47;;;20.10;93.30;20.40;100807.00;;;;4937675;28;87762;-68
2021/10/04 09:26:30;;;;;;;0.68;0.68;;;20.10;93.00;20.40;100819.00;;;;4937813;28;87983;-67
2021/10/04 09:29:07;;;;;;;0.63;0.52;;;20.20;92.90;20.50;100823.00;;;;4937135;28;88064;-68
2021/10/04 09:31:39;;;;;;;0.43;0.43;;;20.20;92.70;20.60;100820.00;;;;4955553;28;94984;-68
2021/10/04 09:34:14;;;;;;;0.82;0.77;;;20.30;92.60;20.70;100828.00;;;;4955723;28;87792;-67
2021/10/04 09:36:59;;;;;;;0.30;0.30;;;20.40;92.50;20.90;100843.00;;;;4956537;28;86885;-68
2021/10/04 09:39:39;;;;;;;0.75;0.70;;;20.50;92.20;21.00;100852.00;;;;4935892;28;94827;-68
2021/10/04 09:42:12;;;;;;;0.70;0.55;;;20.70;91.80;21.10;100858.00;;;;4953354;28;88147;-68
2021/10/04 09:44:54;;;;;;;0.57;0.57;;;20.80;91.30;21.20;100867.00;;;;4936906;28;89148;-67
2021/10/04 09:47:36;;;;;;;2.55;1.02;;;20.90;91.20;21.30;100862.00;;;;4948104;28;87614;-67
2021/10/04 09:50:29;;;;;;;0.68;0.68;;;21.00;91.10;21.40;100869.00;;;;4945052;28;90625;-67
2021/10/04 09:53:01;;;;;;;1.65;0.88;;;21.00;90.90;21.40;100865.00;;;;4956103;28;89361;-67
2021/10/04 09:55:36;;;;;;;0.80;0.70;;;21.30;90.70;21.40;100865.00;;;;4977149;28;87964;-67
2021/10/04 09:58:15;;;;;;;0.80;0.65;;;21.10;90.60;21.40;100865.00;;;;4959861;28;88720;-67
2021/10/04 10:01:02;;;;;;;1.02;0.77;;;21.10;90.50;21.40;100853.00;;;;4960068;28;87684;-68
2021/10/04 10:03:40;;;;;;;1.33;0.50;;;21.10;90.40;21.40;100852.00;;;;4960294;28;87262;-68
2021/10/04 10:06:06;;;;;;;1.13;0.60;;;21.20;90.00;21.50;100851.00;;;;4950039;28;87830;-68
2021/10/04 10:08:31;;;;;;;1.67;0.40;;;21.20;90.00;21.60;100849.00;;;;4957878;28;107551;-67
2021/10/04 10:11:02;;;;;;;0.35;0.35;;;21.50;89.70;21.70;100848.00;;;;4957017;28;118780;-68
2021/10/04 10:13:30;;;;;;;0.30;0.30;;;21.50;88.40;21.90;100855.00;;;;4958405;28;89816;-68
2021/10/04 10:16:13;;;;;;;2.00;0.63;;;21.60;87.40;22.10;100853.00;;;;4959450;28;87631;-67
2021/10/04 10:18:54;;;;;;;0.40;0.40;;;21.70;86.20;22.30;100852.00;;;;4956156;28;88595;-68
2021/10/04 10:21:23;;;;;;;0.30;0.30;;;21.90;85.90;22.40;100852.00;;;;4959678;28;88109;-68
2021/10/04 10:23:57;;;;;;;0.40;0.40;;;22.10;83.60;22.60;100848.00;;;;4959028;28;89243;-68
2021/10/04 10:26:30;;;;;;;0.40;0.22;;;22.20;82.30;22.70;100859.00;;;;4977572;28;87700;-67
2021/10/04 10:29:19;;;;;;;0.10;0.10;;;22.40;79.30;22.70;100853.00;;;;4979146;28;87237;-67
2021/10/04 10:31:55;;;;;;;0.45;0.30;;;22.40;79.00;22.60;100863.00;;;;4959588;28;89980;-68
2021/10/04 10:34:32;;;;;;;0.10;0.10;;;22.40;77.60;22.60;100853.00;;;;4978217;28;87764;-69
2021/10/04 10:37:18;;;;;;;0.10;0.10;;;22.30;76.30;22.40;100865.00;;;;4977352;28;88908;-68
2021/10/04 10:39:54;;;;;;;0.10;0.10;;;22.20;76.50;22.40;100876.00;;;;4977354;28;87894;-68
2021/10/04 10:42:43;;;;;;;0.35;0.17;;;22.10;75.80;22.20;100879.00;;;;4978223;28;88358;-67
2021/10/04 10:45:12;;;;;;;0.20;0.20;;;22.00;75.20;22.00;100878.00;;;;4967753;28;87998;-67